Time;durP1;ratioP1;P1;durP2;ratioP2;P2;SDS_P1;SDS_P2;PMS_P1;PMS_P2;Temp;Humidity;BMP_temperature;BMP_pressure;BME280_temperature;BME280_humidity;BME280_pressure;Samples;Min_cycle;Max_cycle;Signal;HPM_P1;HPM_P2
2021/09/28 00:00:55;;;;;;;4.10;0.70;;;;;;;20.77;48.59;101970.38;4996984;28;20014;-61
2021/09/28 00:03:20;;;;;;;7.32;1.10;;;;;;;20.76;48.29;101963.22;4997197;28;20026;-61
2021/09/28 00:05:48;;;;;;;7.30;1.73;;;;;;;20.76;48.34;101974.09;4996809;28;20030;-61
2021/09/28 00:08:13;;;;;;;3.42;0.90;;;;;;;20.73;48.67;101978.03;4979699;28;20031;-61
2021/09/28 00:10:39;;;;;;;5.45;1.02;;;;;;;20.73;48.27;101974.44;4996806;28;20356;-61
2021/09/28 00:13:08;;;;;;;9.02;1.38;;;;;;;20.70;47.81;101980.22;4996985;28;20068;-61
2021/09/28 00:15:33;;;;;;;5.05;0.90;;;;;;;20.68;48.02;101980.41;4997276;28;20422;-61
2021/09/28 00:18:00;;;;;;;7.18;1.17;;;;;;;20.68;48.21;101982.25;4996831;28;20108;-61
2021/09/28 00:20:25;;;;;;;6.35;1.20;;;;;;;20.66;47.75;101985.13;4979664;28;20090;-61
2021/09/28 00:22:54;;;;;;;5.97;1.27;;;;;;;20.65;48.31;101980.72;4996145;28;20054;-60
2021/09/28 00:25:21;;;;;;;4.38;2.03;;;;;;;20.64;48.10;101983.59;4979336;28;20030;-61
2021/09/28 00:27:46;;;;;;;8.88;1.27;;;;;;;20.62;47.35;101989.22;4996180;28;20097;-61
2021/09/28 00:30:12;;;;;;;9.77;1.10;;;;;;;20.62;48.24;101985.66;4996421;28;20030;-61
2021/09/28 00:32:37;;;;;;;1.85;0.85;;;;;;;20.61;48.13;101990.22;4962943;28;20037;-61
2021/09/28 00:35:03;;;;;;;10.93;1.35;;;;;;;20.60;47.70;101984.97;4979019;28;20083;-61
2021/09/28 00:37:29;;;;;;;8.60;2.08;;;;;;;20.60;47.70;101990.41;4978909;28;20594;-61
2021/09/28 00:39:54;;;;;;;9.77;1.30;;;;;;;20.60;48.45;101993.13;4996470;28;20388;-60
2021/09/28 00:42:20;;;;;;;11.82;0.88;;;;;;;20.58;47.66;101986.97;4996262;28;20523;-61
2021/09/28 00:44:45;;;;;;;4.35;0.90;;;;;;;20.56;48.33;101989.88;4995806;28;20045;-61
2021/09/28 00:47:13;;;;;;;9.20;1.45;;;;;;;20.56;48.20;101992.59;4995927;28;20405;-61
2021/09/28 00:49:40;;;;;;;6.35;1.50;;;;;;;20.57;48.31;101985.28;4996161;28;20498;-61
2021/09/28 00:52:07;;;;;;;13.00;1.23;;;;;;;20.55;48.02;101992.75;4995892;28;20371;-61
2021/09/28 00:54:32;;;;;;;8.85;1.65;;;;;;;20.55;48.06;101995.47;4978845;28;20026;-61
2021/09/28 00:56:58;;;;;;;4.82;0.98;;;;;;;20.54;48.16;101993.78;4996501;28;20037;-61
2021/09/28 00:59:23;;;;;;;9.63;1.67;;;;;;;20.54;47.53;101993.78;4979156;28;20129;-61
2021/09/28 01:01:49;;;;;;;2.83;1.02;;;;;;;20.48;48.08;101987.13;4978648;28;20117;-61
2021/09/28 01:04:16;;;;;;;9.93;1.58;;;;;;;20.51;47.34;101994.13;4978797;28;20030;-61
2021/09/28 01:06:43;;;;;;;3.17;1.20;;;;;;;20.48;47.82;101989.88;4995859;28;20030;-61
2021/09/28 01:09:10;;;;;;;8.13;1.00;;;;;;;20.53;47.76;101992.06;4995422;28;20044;-61
2021/09/28 01:11:37;;;;;;;3.72;0.70;;;;;;;20.52;47.73;101984.94;4978122;28;20386;-61
2021/09/28 01:14:02;;;;;;;4.75;0.95;;;;;;;20.52;48.43;101995.84;4978645;28;20034;-61
2021/09/28 01:16:28;;;;;;;13.68;1.40;;;;;;;20.51;47.78;101994.13;4995677;28;20036;-61
2021/09/28 01:18:54;;;;;;;10.95;2.28;;;;;;;20.49;47.91;101988.00;4995877;28;20501;-61
2021/09/28 01:21:20;;;;;;;3.63;1.00;;;;;;;20.45;48.07;101990.19;4995320;28;20070;-61
2021/09/28 01:23:46;;;;;;;4.18;0.80;;;;;;;20.49;47.80;101996.16;4978202;28;20069;-61
2021/09/28 01:26:23;;;;;;;13.63;1.40;;;;;;;20.47;47.63;101990.88;4995461;28;20026;-61
2021/09/28 01:28:49;;;;;;;6.82;1.40;;;;;;;20.45;47.65;101979.31;4995233;28;20085;-61
2021/09/28 01:31:14;;;;;;;6.10;1.10;;;;;;;20.46;48.19;101985.59;4995523;28;20066;-61
2021/09/28 01:33:40;;;;;;;9.95;1.98;;;;;;;20.46;47.60;101988.31;4995849;28;20030;-61
2021/09/28 01:36:05;;;;;;;9.38;1.27;;;;;;;20.45;47.98;101989.34;4995457;28;20065;-61
2021/09/28 01:38:31;;;;;;;4.50;1.02;;;;;;;20.45;47.89;101998.34;4994198;28;20030;-61
2021/09/28 01:40:57;;;;;;;4.93;0.98;;;;;;;20.44;48.00;101993.06;4978362;28;20074;-61
2021/09/28 01:43:22;;;;;;;3.95;1.23;;;;;;;20.33;47.83;101975.16;4978103;28;20591;-61
2021/09/28 01:45:54;;;;;;;5.50;1.20;;;;;;;20.41;47.59;101987.97;4995236;28;20058;-61
2021/09/28 01:48:20;;;;;;;4.70;1.05;;;;;;;20.41;48.06;101993.41;4995593;28;20050;-61
2021/09/28 01:50:45;;;;;;;11.02;0.80;;;;;;;20.38;47.77;101988.31;4978001;28;20537;-60
2021/09/28 01:53:10;;;;;;;11.35;1.58;;;;;;;20.36;48.22;101993.03;4994328;28;20083;-62
2021/09/28 01:55:36;;;;;;;3.42;1.13;;;;;;;20.35;47.61;101994.06;4995326;28;20033;-61
2021/09/28 01:58:01;;;;;;;4.65;1.02;;;;;;;20.34;48.79;102004.09;4995172;28;20026;-61
2021/09/28 02:00:28;;;;;;;5.97;1.60;;;;;;;20.31;47.91;101999.84;4977270;28;20481;-61
2021/09/28 02:02:53;;;;;;;4.57;1.63;;;;;;;20.28;47.81;102010.19;4994995;28;20045;-61
2021/09/28 02:05:19;;;;;;;6.10;1.02;;;;;;;20.25;47.97;102011.38;4995272;28;20038;-61
2021/09/28 02:07:44;;;;;;;5.47;0.95;;;;;;;20.21;48.39;102009.13;4994880;28;20471;-61
2021/09/28 02:10:11;;;;;;;6.28;0.80;;;;;;;20.19;47.79;102005.69;4995163;28;20030;-60
2021/09/28 02:12:37;;;;;;;9.43;1.52;;;;;;;20.18;47.55;102007.53;4977765;28;20092;-61
2021/09/28 02:15:03;;;;;;;4.75;0.85;;;;;;;20.18;47.84;102010.28;4977455;28;20489;-61
2021/09/28 02:17:28;;;;;;;7.30;1.10;;;;;;;20.18;47.88;102009.44;4998616;28;20030;-61
2021/09/28 02:19:53;;;;;;;10.70;1.27;;;;;;;20.17;47.64;102007.72;4999021;28;20386;-61
2021/09/28 02:22:19;;;;;;;9.13;1.27;;;;;;;20.15;47.68;102005.19;4999121;28;20062;-61
2021/09/28 02:24:44;;;;;;;4.28;0.93;;;;;;;20.17;47.90;102018.59;4998555;28;20030;-61
2021/09/28 02:27:09;;;;;;;5.28;0.95;;;;;;;20.14;48.38;102011.63;4961805;28;20047;-61
2021/09/28 02:29:35;;;;;;;7.75;0.90;;;;;;;20.12;48.13;102021.81;4979261;28;20468;-61
2021/09/28 02:32:00;;;;;;;6.80;1.45;;;;;;;20.10;48.06;102021.13;4979045;28;20043;-61
2021/09/28 02:34:26;;;;;;;5.15;0.93;;;;;;;20.09;47.70;102019.44;4978879;28;20035;-61
2021/09/28 02:36:51;;;;;;;10.73;2.20;;;;;;;20.09;48.16;102021.28;4979009;28;20037;-61
2021/09/28 02:39:18;;;;;;;8.43;1.40;;;;;;;20.08;47.45;102009.56;4979273;28;20023;-61
2021/09/28 02:41:43;;;;;;;5.60;1.00;;;;;;;20.05;48.01;102020.75;4978866;28;20050;-61
2021/09/28 02:44:09;;;;;;;3.53;1.23;;;;;;;20.06;48.14;102022.47;4977944;28;20077;-61
2021/09/28 02:46:34;;;;;;;6.47;2.17;;;;;;;20.07;47.73;102018.72;4978907;28;20368;-61
2021/09/28 02:49:00;;;;;;;2.78;1.17;;;;;;;20.06;47.76;102025.19;4978878;28;20035;-61
2021/09/28 02:51:25;;;;;;;4.80;1.00;;;;;;;20.08;47.96;102030.44;4978862;28;20122;-61
2021/09/28 02:53:50;;;;;;;6.28;1.70;;;;;;;20.05;47.94;102023.47;4977733;28;20046;-61
2021/09/28 02:56:16;;;;;;;9.00;3.35;;;;;;;20.01;48.17;102018.53;4978956;28;20109;-61
2021/09/28 02:58:41;;;;;;;7.53;1.10;;;;;;;19.98;47.73;102025.16;4978336;28;20030;-61
2021/09/28 03:01:06;;;;;;;2.78;0.77;;;;;;;19.98;47.68;102027.88;4978550;28;20027;-61
2021/09/28 03:03:32;;;;;;;5.18;0.95;;;;;;;19.95;48.15;102019.16;4978724;28;20027;-61
2021/09/28 03:05:57;;;;;;;5.78;0.90;;;;;;;19.96;48.53;102027.16;4979098;28;20027;-61
2021/09/28 03:08:23;;;;;;;8.45;1.85;;;;;;;19.96;48.30;102029.88;4978979;28;20059;-61
2021/09/28 03:10:48;;;;;;;2.22;0.90;;;;;;;19.93;48.39;102016.63;4978444;28;20070;-61
2021/09/28 03:13:13;;;;;;;6.90;1.30;;;;;;;19.91;48.02;102024.06;4978730;28;20071;-61
2021/09/28 03:15:40;;;;;;;6.78;1.13;;;;;;;19.88;48.27;102026.28;4978990;28;20444;-61
2021/09/28 03:18:05;;;;;;;11.02;1.65;;;;;;;19.90;48.06;102025.09;4977985;28;20042;-61
2021/09/28 03:20:31;;;;;;;10.20;1.55;;;;;;;19.87;47.73;102022.69;4978601;28;20475;-61
2021/09/28 03:22:56;;;;;;;8.45;1.13;;;;;;;19.86;48.50;102029.13;4978042;28;20074;-61
2021/09/28 03:25:22;;;;;;;5.55;1.38;;;;;;;19.85;48.22;102030.13;4978130;28;20061;-61
2021/09/28 03:27:47;;;;;;;14.70;1.60;;;;;;;19.84;48.08;102035.75;4977366;28;20112;-60
2021/09/28 03:30:13;;;;;;;5.03;0.90;;;;;;;19.84;47.86;102033.91;4978236;28;20479;-61
2021/09/28 03:32:38;;;;;;;1.75;0.73;;;;;;;19.84;48.55;102028.47;4978353;28;20034;-61
2021/09/28 03:35:08;;;;;;;10.40;1.10;;;;;;;19.82;47.90;102024.19;4978889;28;20482;-61
2021/09/28 03:37:34;;;;;;;4.05;0.77;;;;;;;19.82;48.26;102022.31;4978701;28;20031;-61
2021/09/28 03:40:00;;;;;;;2.90;1.23;;;;;;;19.84;48.40;102028.47;4978153;28;20018;-61
2021/09/28 03:42:25;;;;;;;6.15;1.20;;;;;;;19.82;48.25;102032.34;4978174;28;20026;-61
2021/09/28 03:44:52;;;;;;;4.50;0.90;;;;;;;19.79;47.99;102025.38;4978180;28;20495;-60
2021/09/28 03:47:18;;;;;;;4.35;1.58;;;;;;;19.78;48.13;102023.66;4977881;28;20035;-61
2021/09/28 03:49:43;;;;;;;3.17;1.00;;;;;;;19.76;47.84;102026.50;4977964;28;20542;-61
2021/09/28 03:52:08;;;;;;;1.90;0.90;;;;;;;19.71;48.12;102019.84;4978486;28;20066;-61
2021/09/28 03:54:34;;;;;;;2.92;1.13;;;;;;;19.73;47.77;102021.44;4977206;28;20085;-61
2021/09/28 03:56:59;;;;;;;3.80;0.88;;;;;;;19.69;48.09;102025.47;4977837;28;20022;-61
2021/09/28 03:59:25;;;;;;;3.17;1.40;;;;;;;19.67;47.97;102030.22;4977820;28;20058;-61
2021/09/28 04:01:50;;;;;;;3.13;0.80;;;;;;;19.67;48.06;102037.50;4978169;28;20093;-61
2021/09/28 04:04:16;;;;;;;4.30;1.10;;;;;;;19.65;47.99;102034.09;4978040;28;20541;-61
2021/09/28 04:06:41;;;;;;;7.28;1.30;;;;;;;19.62;47.89;102028.97;4977646;28;20042;-61
2021/09/28 04:09:06;;;;;;;3.30;0.63;;;;;;;19.61;48.17;102039.00;4977746;28;20438;-61
2021/09/28 04:11:32;;;;;;;3.25;1.20;;;;;;;19.55;48.29;102027.88;4977695;28;20034;-61
2021/09/28 04:13:57;;;;;;;5.32;0.85;;;;;;;19.55;48.00;102039.63;4977805;28;20464;-61
2021/09/28 04:16:24;;;;;;;4.25;0.93;;;;;;;19.51;48.41;102032.81;4977630;28;20027;-61
2021/09/28 04:18:50;;;;;;;3.75;0.90;;;;;;;19.55;48.14;102038.75;4977354;28;20054;-61
2021/09/28 04:21:15;;;;;;;2.28;1.10;;;;;;;19.55;48.49;102039.63;4977188;28;20102;-61
2021/09/28 04:23:41;;;;;;;2.45;0.90;;;;;;;19.55;48.07;102044.19;4975932;28;20033;-61
2021/09/28 04:26:06;;;;;;;3.65;1.27;;;;;;;19.52;48.28;102049.94;4976390;28;20031;-61
2021/09/28 04:28:31;;;;;;;3.10;0.90;;;;;;;19.50;48.15;102047.41;4976343;28;20130;-61
2021/09/28 04:30:57;;;;;;;4.80;1.02;;;;;;;19.51;48.28;102037.38;4976182;28;20113;-61
2021/09/28 04:33:22;;;;;;;5.18;1.00;;;;;;;19.49;48.39;102039.38;4977427;28;20363;-61
2021/09/28 04:35:47;;;;;;;4.82;0.75;;;;;;;19.48;48.78;102045.84;4977672;28;20036;-61
2021/09/28 04:38:13;;;;;;;3.30;1.80;;;;;;;19.47;48.15;102042.28;4975628;28;20039;-61
2021/09/28 04:40:38;;;;;;;8.55;1.40;;;;;;;19.44;48.25;102045.31;4977283;28;20037;-60
2021/09/28 04:43:03;;;;;;;4.68;0.90;;;;;;;19.45;48.10;102048.88;4977687;28;20070;-61
2021/09/28 04:45:29;;;;;;;9.45;1.10;;;;;;;19.44;48.22;102048.03;4976986;28;20395;-61
2021/09/28 04:47:54;;;;;;;1.52;0.60;;;;;;;19.41;48.51;102042.03;4977291;28;20065;-61
2021/09/28 04:50:20;;;;;;;3.92;1.00;;;;;;;19.43;47.97;102051.75;4977116;28;20101;-60
2021/09/28 04:52:45;;;;;;;2.40;0.70;;;;;;;19.44;48.52;102053.47;4976099;28;20093;-61
2021/09/28 04:55:11;;;;;;;4.78;0.68;;;;;;;19.45;48.41;102049.75;4976994;28;20031;-60
2021/09/28 04:57:36;;;;;;;6.35;0.68;;;;;;;19.46;48.48;102050.56;4976814;28;20506;-61
2021/09/28 05:00:03;;;;;;;6.78;1.20;;;;;;;19.47;48.37;102063.16;4977025;28;20026;-61
2021/09/28 05:02:28;;;;;;;4.45;1.00;;;;;;;19.47;48.36;102058.59;4977035;28;20360;-61
2021/09/28 05:04:53;;;;;;;2.30;1.08;;;;;;;19.47;48.29;102053.16;4976790;28;20096;-60
2021/09/28 05:07:19;;;;;;;8.63;1.02;;;;;;;19.47;48.40;102055.00;4976887;28;20395;-61
2021/09/28 05:09:44;;;;;;;9.38;1.00;;;;;;;19.44;48.33;102053.47;4976513;28;20027;-60
2021/09/28 05:12:10;;;;;;;6.03;1.35;;;;;;;19.44;48.51;102052.59;4976009;28;20174;-60
2021/09/28 05:14:35;;;;;;;5.30;1.30;;;;;;;19.42;48.29;102055.50;4976768;28;20047;-60
2021/09/28 05:17:01;;;;;;;2.40;0.80;;;;;;;19.41;48.37;102052.91;4976497;28;20046;-61
2021/09/28 05:19:26;;;;;;;3.63;1.67;;;;;;;19.37;48.25;102052.38;4976504;28;20037;-60
2021/09/28 05:21:51;;;;;;;2.05;0.70;;;;;;;19.38;48.25;102056.78;4975225;28;20118;-60
2021/09/28 05:24:17;;;;;;;3.78;1.10;;;;;;;19.37;48.34;102057.78;4975543;28;20034;-61
2021/09/28 05:26:42;;;;;;;5.20;1.08;;;;;;;19.37;47.92;102057.78;4978173;28;20030;-61
2021/09/28 05:29:07;;;;;;;5.65;1.50;;;;;;;19.35;48.44;102061.66;4996076;28;20048;-61
2021/09/28 05:31:36;;;;;;;1.67;1.08;;;;;;;19.33;48.33;102063.69;5000766;28;20034;-61
2021/09/28 05:34:01;;;;;;;1.27;1.00;;;;;;;19.33;48.35;102055.53;5015031;28;20033;-61
2021/09/28 05:36:26;;;;;;;3.10;1.00;;;;;;;19.31;48.24;102063.00;5015420;28;20072;-61
2021/09/28 05:38:52;;;;;;;5.57;1.27;;;;;;;19.30;48.39;102066.69;5015298;28;20112;-60
2021/09/28 05:41:17;;;;;;;4.50;1.30;;;;;;;19.29;48.01;102074.00;5015203;28;20029;-61
2021/09/28 05:43:43;;;;;;;3.78;1.52;;;;;;;19.29;48.08;102070.44;5015061;28;20041;-61
2021/09/28 05:46:09;;;;;;;8.18;2.20;;;;;;;19.29;48.46;102075.88;5015334;28;20029;-61
2021/09/28 05:48:35;;;;;;;6.20;1.23;;;;;;;19.27;47.49;102076.03;5014950;28;20026;-61
2021/09/28 05:51:00;;;;;;;7.45;1.30;;;;;;;19.30;48.17;102085.72;5014252;28;20089;-61
2021/09/28 05:53:33;;;;;;;8.13;1.27;;;;;;;19.33;48.16;102082.69;5015555;28;20026;-61
2021/09/28 05:55:58;;;;;;;3.92;1.58;;;;;;;19.35;47.95;102083.38;5015458;28;20029;-61
2021/09/28 05:58:23;;;;;;;5.55;1.48;;;;;;;19.37;48.59;102075.97;5015396;28;20037;-61
2021/09/28 06:00:49;;;;;;;4.40;1.02;;;;;;;19.39;47.97;102082.13;4997290;28;20022;-61
2021/09/28 06:03:14;;;;;;;5.55;1.13;;;;;;;19.43;48.43;102081.63;5015145;28;20025;-61
2021/09/28 06:05:40;;;;;;;2.03;0.93;;;;;;;19.46;47.89;102077.75;5014756;28;20503;-61
2021/09/28 06:08:05;;;;;;;4.43;1.27;;;;;;;19.49;47.68;102088.31;4997233;28;20397;-61
2021/09/28 06:10:31;;;;;;;4.00;1.40;;;;;;;19.57;47.87;102091.13;5015086;28;20421;-61
2021/09/28 06:12:56;;;;;;;1.80;1.00;;;;;;;19.58;47.70;102084.66;4997940;28;20395;-61
2021/09/28 06:15:21;;;;;;;7.03;1.20;;;;;;;19.75;48.37;102091.94;4997722;28;20414;-61
2021/09/28 06:17:47;;;;;;;7.45;1.27;;;;;;;19.81;47.82;102087.75;5014655;28;20109;-61
2021/09/28 06:20:12;;;;;;;7.28;0.88;;;;;;;19.93;47.48;102092.78;4981154;28;20030;-61
2021/09/28 06:22:38;;;;;;;8.98;1.00;;;;;;;20.04;48.00;102095.25;5014415;28;20453;-61
2021/09/28 06:25:04;;;;;;;4.10;0.73;;;;;;;20.15;47.82;102097.69;5014342;28;20474;-61
2021/09/28 06:27:29;;;;;;;3.25;1.60;;;;;;;20.30;47.35;102100.69;5014010;28;20054;-60
2021/09/28 06:29:55;;;;;;;5.90;1.13;;;;;;;20.41;47.42;102096.84;5014793;28;20446;-61
2021/09/28 06:32:22;;;;;;;2.28;1.10;;;;;;;20.57;47.30;102088.75;5014646;28;20034;-61
2021/09/28 06:34:48;;;;;;;2.95;0.77;;;;;;;20.70;47.00;102092.72;5014837;28;20108;-61
2021/09/28 06:37:15;;;;;;;5.03;1.20;;;;;;;20.83;47.45;102094.97;4997376;28;20077;-61
2021/09/28 06:39:40;;;;;;;2.50;1.27;;;;;;;20.97;46.43;102094.34;5014417;28;20053;-61
2021/09/28 06:42:06;;;;;;;3.17;0.90;;;;;;;21.10;46.87;102094.78;4997291;28;20061;-61
2021/09/28 06:44:31;;;;;;;8.25;1.67;;;;;;;21.27;47.11;102096.47;5013853;28;20168;-61
2021/09/28 06:46:57;;;;;;;2.83;0.80;;;;;;;21.44;46.22;102091.91;5014203;28;20034;-61
2021/09/28 06:49:22;;;;;;;4.00;0.95;;;;;;;21.62;45.88;102091.75;5013643;28;20386;-61
2021/09/28 06:51:47;;;;;;;3.50;0.70;;;;;;;21.74;46.34;102077.63;5013153;28;20026;-61
2021/09/28 06:54:13;;;;;;;8.77;1.60;;;;;;;21.97;45.75;102083.25;5013487;28;20057;-62
2021/09/28 06:56:38;;;;;;;2.63;1.00;;;;;;;22.08;45.89;102074.72;4996230;28;20022;-61
2021/09/28 06:59:08;;;;;;;6.72;1.00;;;;;;;22.27;45.39;102077.06;5013039;28;20037;-62
2021/09/28 07:01:37;;;;;;;3.45;0.60;;;;;;;22.43;45.19;102073.41;5013704;28;20021;-62
2021/09/28 07:04:03;;;;;;;3.85;0.95;;;;;;;22.55;45.06;102077.47;5017072;28;20053;-62
2021/09/28 07:06:29;;;;;;;2.15;0.85;;;;;;;22.68;45.14;102075.03;5016619;28;20041;-62
2021/09/28 07:08:54;;;;;;;6.13;1.52;;;;;;;22.79;44.76;102071.91;5016429;28;20022;-62
2021/09/28 07:11:20;;;;;;;4.35;1.25;;;;;;;22.90;45.23;102081.59;5016786;28;20058;-62
2021/09/28 07:13:46;;;;;;;3.97;0.90;;;;;;;22.98;44.30;102076.94;5016472;28;20087;-62
2021/09/28 07:16:12;;;;;;;6.18;1.15;;;;;;;23.14;44.45;102084.19;5016258;28;20037;-63
2021/09/28 07:18:37;;;;;;;4.47;2.22;;;;;;;23.24;43.98;102079.34;5016325;28;20057;-62
2021/09/28 07:21:03;;;;;;;6.20;0.93;;;;;;;23.33;44.71;102078.25;5016527;28;20022;-62
2021/09/28 07:23:29;;;;;;;4.30;0.85;;;;;;;23.48;44.73;102081.91;5016280;28;20374;-61
2021/09/28 07:25:55;;;;;;;3.10;1.05;;;;;;;23.62;44.60;102086.59;5016136;28;20026;-62
2021/09/28 07:28:20;;;;;;;4.22;1.38;;;;;;;23.77;43.48;102083.91;5015908;28;20133;-62
2021/09/28 07:30:46;;;;;;;5.35;1.20;;;;;;;23.88;43.97;102085.34;5016289;28;20371;-62
2021/09/28 07:33:11;;;;;;;4.50;1.00;;;;;;;23.89;43.31;102079.69;5016051;28;20038;-62
2021/09/28 07:35:36;;;;;;;5.75;1.40;;;;;;;23.97;43.22;102081.50;5016212;28;20084;-62
2021/09/28 07:38:02;;;;;;;6.35;1.88;;;;;;;24.04;43.67;102085.19;5016128;28;20117;-62
2021/09/28 07:40:28;;;;;;;2.25;1.00;;;;;;;24.02;43.66;102084.53;5015049;28;20026;-62
2021/09/28 07:42:53;;;;;;;9.68;1.60;;;;;;;24.18;43.46;102084.38;5010015;28;20471;-62
2021/09/28 07:45:18;;;;;;;11.63;1.35;;;;;;;24.29;43.08;102081.19;5004707;28;20060;-62
2021/09/28 07:47:44;;;;;;;6.07;1.35;;;;;;;24.40;42.62;102083.44;5003940;28;20475;-61
2021/09/28 07:50:10;;;;;;;3.35;1.65;;;;;;;24.62;42.92;102082.50;5005747;28;20023;-62
2021/09/28 07:52:35;;;;;;;6.15;3.13;;;;;;;24.71;42.93;102086.84;5004989;28;20030;-62
2021/09/28 07:55:01;;;;;;;9.55;2.47;;;;;;;24.83;42.44;102089.97;5006463;28;20022;-62
2021/09/28 07:57:26;;;;;;;5.20;1.38;;;;;;;25.07;42.53;102086.88;5004577;28;20018;-62
2021/09/28 07:59:53;;;;;;;9.38;1.80;;;;;;;25.29;42.24;102096.00;5005518;28;20029;-60
2021/09/28 08:02:20;;;;;;;11.20;1.92;;;;;;;25.45;41.95;102095.75;5011927;28;20026;-60
2021/09/28 08:04:46;;;;;;;3.80;1.45;;;;;;;25.50;41.54;102098.78;5015670;28;20026;-60
2021/09/28 08:07:13;;;;;;;7.43;1.95;;;;;;;25.51;41.77;102095.00;4998055;28;20398;-60
2021/09/28 08:09:39;;;;;;;3.50;1.10;;;;;;;25.64;41.67;102092.38;5015629;28;20026;-60
2021/09/28 08:12:07;;;;;;;4.97;1.50;;;;;;;25.83;41.62;102099.94;4991219;28;20054;-60
2021/09/28 08:14:32;;;;;;;7.63;1.77;;;;;;;25.85;41.01;102095.09;5014535;28;20040;-60
2021/09/28 08:16:57;;;;;;;7.85;1.55;;;;;;;25.92;41.27;102092.41;5007438;28;20030;-60
2021/09/28 08:19:23;;;;;;;3.67;1.20;;;;;;;26.06;40.86;102094.22;4995523;28;20030;-60
2021/09/28 08:21:48;;;;;;;4.78;1.10;;;;;;;26.21;41.06;102091.41;4995369;28;20022;-60
2021/09/28 08:24:13;;;;;;;4.65;1.20;;;;;;;26.35;41.05;102093.19;4995225;28;20057;-60
2021/09/28 08:29:23;;;;;;;3.05;1.10;;;;;;;26.45;40.72;102090.91;4995281;28;20085;-60
2021/09/28 08:31:49;;;;;;;7.97;1.23;;;;;;;26.54;41.08;102087.81;4994986;28;20030;-60
2021/09/28 08:34:15;;;;;;;4.20;0.90;;;;;;;26.67;40.23;102089.75;4995312;28;20030;-60
2021/09/28 08:36:41;;;;;;;7.95;1.35;;;;;;;26.81;40.32;102086.06;4995173;28;20030;-60
2021/09/28 08:39:12;;;;;;;3.15;0.93;;;;;;;26.89;39.81;102091.38;4995159;28;20130;-60
2021/09/28 08:41:43;;;;;;;5.63;0.90;;;;;;;26.99;39.47;102096.50;4995072;28;20014;-60
2021/09/28 08:44:08;;;;;;;4.20;0.93;;;;;;;27.00;39.93;102079.78;5004869;28;20072;-60
2021/09/28 08:46:34;;;;;;;3.15;0.88;;;;;;;27.01;40.23;102084.25;5014459;28;20425;-61
2021/09/28 08:48:59;;;;;;;3.85;1.00;;;;;;;26.90;39.43;102081.22;5014709;28;20540;-60
2021/09/28 08:51:24;;;;;;;5.53;0.80;;;;;;;26.90;40.23;102087.59;5013773;28;20037;-60
2021/09/28 08:53:50;;;;;;;3.35;1.40;;;;;;;26.98;39.19;102084.66;4997241;28;20032;-60
2021/09/28 08:56:17;;;;;;;4.28;0.90;;;;;;;26.93;39.17;102081.66;4997324;28;20466;-60
2021/09/28 08:59:03;;;;;;;5.90;0.70;;;;;;;26.92;39.46;102087.38;5014600;28;20474;-61
2021/09/28 09:01:34;;;;;;;3.25;0.70;;;;;;;26.97;39.25;102077.44;5014635;28;20382;-60
2021/09/28 09:04:16;;;;;;;3.92;0.93;;;;;;;27.03;39.64;102082.13;5005211;28;20025;-60
2021/09/28 09:06:44;;;;;;;8.23;0.80;;;;;;;27.04;39.60;102081.06;5005281;28;20489;-60
2021/09/28 09:09:10;;;;;;;5.45;1.08;;;;;;;27.02;39.26;102083.19;5005101;28;20097;-60
2021/09/28 09:11:38;;;;;;;1.52;0.82;;;;;;;27.05;39.01;102084.69;4997498;28;20113;-60
2021/09/28 09:14:24;;;;;;;5.60;1.27;;;;;;;27.16;38.60;102087.66;4994874;28;20117;-60
2021/09/28 09:16:52;;;;;;;2.65;0.70;;;;;;;27.31;39.52;102084.72;4994953;28;20367;-60
2021/09/28 09:19:21;;;;;;;5.47;1.08;;;;;;;27.43;39.06;102083.09;4995077;28;20019;-60
2021/09/28 09:21:51;;;;;;;4.78;1.02;;;;;;;27.62;39.07;102076.78;5002696;28;20017;-60
2021/09/28 09:24:43;;;;;;;5.47;1.08;;;;;;;28.05;38.46;102079.13;5003413;28;20390;-60
2021/09/28 09:27:14;;;;;;;6.78;1.40;;;;;;;28.51;37.56;102068.00;5005164;28;20498;-60
2021/09/28 09:29:41;;;;;;;6.93;1.55;;;;;;;29.17;37.22;102071.34;4981250;28;20491;-60
2021/09/28 09:32:07;;;;;;;2.75;1.30;;;;;;;30.16;36.09;102072.28;4977230;28;20032;-60
2021/09/28 09:34:35;;;;;;;3.50;1.00;;;;;;;30.37;35.26;102074.69;5005805;28;20030;-61
2021/09/28 09:37:06;;;;;;;9.07;1.75;;;;;;;30.06;35.95;102069.22;5013913;28;20390;-61
2021/09/28 09:39:48;;;;;;;8.15;1.40;;;;;;;29.63;36.38;102071.91;5013797;28;20052;-61
2021/09/28 09:42:14;;;;;;;;;;;;;;;29.60;36.34;102063.19;5009579;28;20022;-60
2021/09/28 09:44:41;;;;;;;3.47;1.48;;;;;;;29.83;36.41;102067.09;5010191;28;20281;-61
2021/09/28 09:47:07;;;;;;;6.38;1.27;;;;;;;30.02;35.76;102065.22;5007796;28;20032;-61
2021/09/28 09:49:34;;;;;;;5.00;1.00;;;;;;;30.07;36.02;102059.00;4996665;28;20401;-61
2021/09/28 09:52:08;;;;;;;10.80;1.30;;;;;;;30.07;35.46;102054.31;5013711;28;20335;-61
2021/09/28 09:54:39;;;;;;;8.15;2.72;;;;;;;30.01;35.56;102052.47;5013518;28;20026;-61
2021/09/28 09:57:07;;;;;;;5.53;0.95;;;;;;;30.00;35.74;102043.34;5013334;28;20076;-61
2021/09/28 09:59:33;;;;;;;7.00;1.13;;;;;;;30.10;35.60;102042.78;5013512;28;20100;-61
2021/09/28 10:01:59;;;;;;;7.95;1.10;;;;;;;30.24;35.19;102040.72;5013567;28;20018;-60
2021/09/28 10:04:24;;;;;;;4.65;1.05;;;;;;;30.36;35.18;102045.28;5013580;28;20076;-61
2021/09/28 10:06:51;;;;;;;3.05;0.65;;;;;;;30.45;34.94;102034.78;5013630;28;20033;-61
2021/09/28 10:09:30;;;;;;;4.47;1.08;;;;;;;30.44;34.80;102035.84;5013800;28;20366;-61
2021/09/28 10:11:58;;;;;;;4.72;1.20;;;;;;;30.45;35.20;102032.88;4996042;28;20029;-62
2021/09/28 10:14:28;;;;;;;8.48;0.82;;;;;;;30.44;34.77;102041.38;5013595;28;20466;-60
2021/09/28 10:16:54;;;;;;;8.10;1.17;;;;;;;30.47;35.10;102029.88;4996508;28;20025;-61
2021/09/28 10:19:26;;;;;;;4.85;0.70;;;;;;;30.49;35.13;102031.31;5013507;28;20022;-61
2021/09/28 10:21:53;;;;;;;4.93;1.15;;;;;;;30.40;34.94;102035.47;4996116;28;20026;-61
2021/09/28 10:24:18;;;;;;;4.75;0.70;;;;;;;30.36;34.60;102028.69;4996127;28;20124;-61
2021/09/28 10:27:07;;;;;;;5.05;1.08;;;;;;;30.38;34.40;102026.56;5013252;28;20097;-61
2021/09/28 10:29:43;;;;;;;4.28;0.82;;;;;;;30.44;34.34;102017.34;5012821;28;20095;-61
2021/09/28 10:32:34;;;;;;;4.10;0.70;;;;;;;30.62;34.40;102012.88;5013249;28;20106;-61
2021/09/28 10:35:06;;;;;;;6.07;0.80;;;;;;;30.64;34.44;102016.25;5013072;28;20022;-61
2021/09/28 10:37:48;;;;;;;4.45;1.08;;;;;;;30.68;34.06;102015.56;5013815;28;20041;-61
2021/09/28 10:40:14;;;;;;;4.75;0.93;;;;;;;30.65;34.14;102009.66;5015947;28;20026;-62
2021/09/28 10:42:55;;;;;;;2.08;0.65;;;;;;;30.51;34.32;102007.03;5015721;28;20025;-61
2021/09/28 10:45:41;;;;;;;9.32;1.27;;;;;;;30.38;34.30;102006.34;5017061;28;20026;-61
2021/09/28 10:48:18;;;;;;;6.63;0.93;;;;;;;30.36;34.18;102014.00;5016691;28;20034;-61
2021/09/28 10:50:45;;;;;;;3.63;0.77;;;;;;;30.29;34.06;101993.91;4997535;28;20124;-61
2021/09/28 10:53:20;;;;;;;5.90;1.17;;;;;;;30.24;34.13;101994.56;4993771;28;20022;-61
2021/09/28 10:55:58;;;;;;;2.10;0.70;;;;;;;30.23;33.97;101995.66;5014323;28;20112;-60
2021/09/28 10:58:26;;;;;;;5.30;1.13;;;;;;;30.18;34.35;101992.72;5016594;28;20026;-61
2021/09/28 11:00:54;;;;;;;4.10;0.75;;;;;;;30.24;33.89;101991.81;5016446;28;20367;-60
2021/09/28 11:03:41;;;;;;;4.40;0.98;;;;;;;30.24;33.86;102002.00;5004023;28;20041;-61
2021/09/28 11:06:07;;;;;;;3.88;1.00;;;;;;;30.14;33.81;101991.50;4996806;28;20030;-61
2021/09/28 11:08:36;;;;;;;5.35;0.80;;;;;;;30.04;34.17;101990.38;4985511;28;20030;-60
2021/09/28 11:11:07;;;;;;;6.72;0.77;;;;;;;29.93;33.37;101980.88;5006072;28;20029;-61
2021/09/28 11:13:35;;;;;;;3.83;0.90;;;;;;;29.90;33.58;101979.44;5007632;28;20437;-60
2021/09/28 11:16:02;;;;;;;7.63;1.42;;;;;;;29.94;33.42;101986.19;5000353;28;20027;-60
2021/09/28 11:18:28;;;;;;;4.35;0.57;;;;;;;30.00;32.78;101970.63;5016153;28;20022;-60
2021/09/28 11:20:53;;;;;;;11.23;1.20;;;;;;;30.07;33.32;101979.66;5013928;28;20467;-60
2021/09/28 11:23:18;;;;;;;2.90;0.95;;;;;;;30.07;33.30;101963.09;5010055;28;20085;-61
2021/09/28 11:25:49;;;;;;;3.72;1.20;;;;;;;30.11;32.53;101964.31;5015978;28;20441;-60